createdAt,value
2023-02-06T00:00:53.699Z,158136.50
2023-02-06T00:03:57.582Z,158166.38
2023-02-06T00:07:01.598Z,158162.50
2023-02-06T00:10:06.128Z,158165.06
2023-02-06T00:13:10.685Z,158148.19
2023-02-06T00:16:27.647Z,158126.06
2023-02-06T00:19:31.896Z,158109.19
2023-02-06T00:22:36.823Z,158107.88
2023-02-06T00:25:40.938Z,158119.56
2023-02-06T00:28:45.978Z,158107.88
2023-02-06T00:31:49.746Z,158107.88
2023-02-06T00:34:53.606Z,158116.97
2023-02-06T00:37:59.781Z,158116.97
2023-02-06T00:41:03.997Z,158133.91
2023-02-06T00:44:08.005Z,158150.81
2023-02-06T00:47:12.104Z,158179.38
2023-02-06T00:50:16.768Z,158194.97
2023-02-06T00:53:21.281Z,158214.44
2023-02-06T00:56:25.372Z,158235.22
2023-02-06T00:59:29.850Z,158218.34
2023-02-06T01:02:33.988Z,158243.03
2023-02-06T01:05:38.596Z,158245.66
2023-02-06T01:08:43.120Z,158265.13
2023-02-06T01:11:47.509Z,158287.25
2023-02-06T01:14:51.814Z,158271.66
2023-02-06T01:17:55.904Z,158250.81
2023-02-06T01:20:59.994Z,158235.22
2023-02-06T01:24:04.288Z,158243.03
2023-02-06T01:27:08.293Z,158213.13
2023-02-06T01:30:13.224Z,158192.34
2023-02-06T01:33:17.040Z,158167.66
2023-02-06T01:36:22.180Z,158145.59
2023-02-06T01:39:26.568Z,158118.25
2023-02-06T01:42:34.949Z,158116.97
2023-02-06T01:45:42.450Z,158116.97
2023-02-06T01:48:52.691Z,158131.28
2023-02-06T01:52:06.225Z,158126.06
2023-02-06T01:55:09.959Z,158113.09
2023-02-06T01:58:19.064Z,158114.34
2023-02-06T02:01:23.264Z,158126.06
2023-02-06T02:04:29.028Z,158124.75
2023-02-06T02:07:37.309Z,158126.06
2023-02-06T02:10:41.658Z,158133.91
2023-02-06T02:13:46.410Z,158123.44
2023-02-06T02:17:08.510Z,158149.50
2023-02-06T02:20:43.519Z,158152.06
2023-02-06T02:24:11.363Z,158149.50
2023-02-06T02:27:34.125Z,158123.44
2023-02-06T02:30:53.481Z,158113.09
2023-02-06T02:34:38.564Z,158127.34
2023-02-06T02:38:11.948Z,158094.88
2023-02-06T02:41:27.808Z,158085.78
2023-02-06T02:44:54.728Z,158097.44
2023-02-06T02:48:05.207Z,158092.28
2023-02-06T02:51:10.348Z,158102.66
2023-02-06T02:54:14.838Z,158115.66
2023-02-06T02:57:25.332Z,158133.91
2023-02-06T03:00:30.844Z,158123.44
2023-02-06T03:03:39.466Z,158119.56
2023-02-06T03:07:19.613Z,158103.97
2023-02-06T03:10:40.996Z,158103.97
2023-02-06T03:14:01.046Z,158100.06
2023-02-06T03:17:09.843Z,158090.97
2023-02-06T03:20:16.030Z,158107.88
2023-02-06T03:23:28.655Z,158110.44
2023-02-06T03:26:34.448Z,158119.56
2023-02-06T03:29:41.287Z,158135.19
2023-02-06T03:32:49.378Z,158140.38
2023-02-06T03:35:55.232Z,158162.50
2023-02-06T03:38:59.476Z,158207.97
2023-02-06T03:42:05.381Z,158204.06
2023-02-06T03:45:38.598Z,158204.06
2023-02-06T03:48:48.578Z,158214.44
2023-02-06T03:52:01.808Z,158227.44
2023-02-06T03:55:13.945Z,158262.50
2023-02-06T03:58:18.013Z,158275.56
2023-02-06T04:01:23.468Z,158306.78
2023-02-06T04:04:45.838Z,158302.88
2023-02-06T04:07:50.071Z,158321.06
2023-02-06T04:10:53.912Z,158341.84
2023-02-06T04:13:57.876Z,158350.97
2023-02-06T04:17:06.151Z,158352.28
2023-02-06T04:20:10.629Z,158344.47
2023-02-06T04:23:14.951Z,158354.88
2023-02-06T04:26:19.377Z,158376.97
2023-02-06T04:29:23.324Z,158388.66
2023-02-06T04:32:27.354Z,158400.38
2023-02-06T04:35:31.605Z,158409.47
2023-02-06T04:38:36.841Z,158427.66
2023-02-06T04:41:41.305Z,158427.66
2023-02-06T04:44:45.605Z,158439.38
2023-02-06T04:47:50.332Z,158473.16
2023-02-06T04:50:54.250Z,158474.47
2023-02-06T04:53:58.611Z,158484.84
2023-02-06T04:57:03.112Z,158497.88
2023-02-06T05:00:09.183Z,158496.59
2023-02-06T05:03:13.384Z,158491.38
2023-02-06T05:06:17.837Z,158509.56
2023-02-06T05:09:21.808Z,158491.38
2023-02-06T05:12:28.872Z,158486.19
2023-02-06T05:15:35.042Z,158469.25
2023-02-06T05:18:40.625Z,158471.91
2023-02-06T05:21:44.955Z,158479.69
2023-02-06T05:24:49.064Z,158491.38
2023-02-06T05:27:53.314Z,158523.91
2023-02-06T05:30:57.607Z,158559.03
2023-02-06T05:34:02.042Z,158538.28
2023-02-06T05:37:06.221Z,158549.97
2023-02-06T05:40:11.221Z,158549.97
2023-02-06T05:43:15.168Z,158565.56
2023-02-06T05:46:19.768Z,158551.25
2023-02-06T05:49:24.033Z,158578.59
2023-02-06T05:52:28.268Z,158586.38
2023-02-06T05:55:33.019Z,158617.59
2023-02-06T05:58:37.050Z,158642.31
2023-02-06T06:01:41.347Z,158665.75
2023-02-06T06:04:45.791Z,158674.84
2023-02-06T06:07:50.064Z,158669.66
2023-02-06T06:10:54.384Z,158674.84
2023-02-06T06:13:58.503Z,158682.69
2023-02-06T06:17:02.798Z,158686.59
2023-02-06T06:20:07.329Z,158690.50
2023-02-06T06:23:11.447Z,158695.63
2023-02-06T06:26:16.095Z,158686.59
2023-02-06T06:29:20.313Z,158696.94
2023-02-06T06:32:24.584Z,158706.03
2023-02-06T06:35:28.678Z,158721.66
2023-02-06T06:38:33.024Z,158715.16
2023-02-06T06:41:36.856Z,158711.28
2023-02-06T06:44:41.209Z,158712.53
2023-02-06T06:47:45.482Z,158719.06
2023-02-06T06:50:50.388Z,158708.63
2023-02-06T06:53:54.913Z,158717.75
2023-02-06T06:56:58.812Z,158713.84
2023-02-06T07:00:04.446Z,158729.44
2023-02-06T07:03:08.576Z,158726.88
2023-02-06T07:06:13.285Z,158747.69
2023-02-06T07:09:17.277Z,158739.88
2023-02-06T07:12:21.585Z,158748.97
2023-02-06T07:15:25.927Z,158758.09
2023-02-06T07:18:30.076Z,158768.53
2023-02-06T07:21:34.920Z,158767.22
2023-02-06T07:24:39.047Z,158765.88
2023-02-06T07:27:43.540Z,158769.78
2023-02-06T07:30:47.581Z,158781.56
2023-02-06T07:33:51.806Z,158793.25
2023-02-06T07:36:56.954Z,158820.56
2023-02-06T07:40:01.389Z,158828.38
2023-02-06T07:43:06.960Z,158825.78
2023-02-06T07:46:10.790Z,158832.28
2023-02-06T07:49:15.977Z,158849.22
2023-02-06T07:52:22.420Z,158864.81
2023-02-06T07:55:27.040Z,158872.63
2023-02-06T07:58:31.460Z,158879.16
2023-02-06T08:01:36.698Z,158883.09
2023-02-06T08:04:41.077Z,158871.38
2023-02-06T08:07:45.213Z,158873.94
2023-02-06T08:10:49.629Z,158876.59
2023-02-06T08:13:54.234Z,158888.28
2023-02-06T08:16:58.539Z,158886.97
2023-02-06T08:20:02.492Z,158890.88
2023-02-06T08:23:08.056Z,158901.34
2023-02-06T08:26:18.325Z,158920.84
2023-02-06T08:29:22.918Z,158911.72
2023-02-06T08:32:33.236Z,158931.25
2023-02-06T08:35:37.781Z,158933.88
2023-02-06T08:38:42.313Z,158939.03
2023-02-06T08:41:46.297Z,158945.59
2023-02-06T08:44:52.291Z,158975.50
2023-02-06T08:47:56.127Z,158987.22
2023-02-06T08:51:07.712Z,158998.94
2023-02-06T08:54:14.470Z,159005.44
2023-02-06T08:57:18.583Z,159026.28
2023-02-06T09:00:23.090Z,159018.47
2023-02-06T09:03:27.371Z,159017.16
2023-02-06T09:06:32.017Z,159028.91
2023-02-06T09:09:35.877Z,159048.44
2023-02-06T09:12:39.965Z,159052.34
2023-02-06T09:15:51.046Z,159061.47
2023-02-06T09:18:56.148Z,159067.97
2023-02-06T09:22:00.446Z,159101.81
2023-02-06T09:25:04.844Z,159100.47
2023-02-06T09:28:08.978Z,159120.06
2023-02-06T09:31:13.968Z,159133.06
2023-02-06T09:34:18.106Z,159160.44
2023-02-06T09:37:23.426Z,159193.03
2023-02-06T09:40:29.623Z,159208.59
2023-02-06T09:43:34.652Z,159213.81
2023-02-06T09:46:50.692Z,159212.50
2023-02-06T09:50:02.662Z,159220.31
2023-02-06T09:53:39.921Z,159224.22
2023-02-06T09:57:05.366Z,159260.72
2023-02-06T10:00:22.763Z,159272.50
2023-02-06T10:03:36.504Z,159284.22
2023-02-06T10:06:54.142Z,159308.94
2023-02-06T10:10:42.998Z,159301.13
2023-02-06T10:13:58.197Z,159269.84
2023-02-06T10:17:14.872Z,159285.44
2023-02-06T10:20:29.218Z,159271.19
2023-02-06T10:23:42.508Z,159277.69
2023-02-06T10:26:48.050Z,159252.91
2023-02-06T10:29:53.190Z,159247.72
2023-02-06T10:33:25.960Z,159247.72
2023-02-06T10:37:04.213Z,159213.81
2023-02-06T10:40:26.622Z,159195.59
2023-02-06T10:43:33.328Z,159177.41
2023-02-06T10:46:44.211Z,159177.41
2023-02-06T10:49:56.146Z,159185.22
2023-02-06T10:53:06.337Z,159182.56
2023-02-06T10:56:14.164Z,159182.56
2023-02-06T10:59:23.430Z,159194.34
2023-02-06T11:02:36.433Z,159211.19
2023-02-06T11:05:41.469Z,159222.97
2023-02-06T11:08:47.382Z,159173.50
2023-02-06T11:11:54.572Z,159178.66
2023-02-06T11:15:04.816Z,159187.78
2023-02-06T11:18:14.551Z,159203.38
2023-02-06T11:21:42.119Z,159217.72
2023-02-06T11:25:01.061Z,159202.09
2023-02-06T11:28:13.730Z,159193.03
2023-02-06T11:31:21.242Z,159194.34
2023-02-06T11:34:27.851Z,159191.72
2023-02-06T11:37:34.849Z,159143.50
2023-02-06T11:40:39.063Z,159139.59
2023-02-06T11:43:43.077Z,159139.59
2023-02-06T11:46:47.260Z,159144.81
2023-02-06T11:49:51.911Z,159181.31
2023-02-06T11:53:08.346Z,159190.44
2023-02-06T11:56:18.850Z,159202.09
2023-02-06T11:59:27.130Z,159182.56
2023-02-06T12:02:37.208Z,159195.59
2023-02-06T12:05:42.764Z,159195.59
2023-02-06T12:08:52.652Z,159183.88
2023-02-06T12:12:06.381Z,159176.06
2023-02-06T12:15:36.206Z,159196.94
2023-02-06T12:18:40.822Z,159177.41
2023-02-06T12:21:54.688Z,159183.88
2023-02-06T12:25:00.922Z,159187.78
2023-02-06T12:28:14.448Z,159204.69
2023-02-06T12:31:45.694Z,159213.81
2023-02-06T12:34:55.966Z,159209.94
2023-02-06T12:38:32.146Z,159206.00
2023-02-06T12:41:48.601Z,159226.88
2023-02-06T12:45:03.919Z,159207.28
2023-02-06T12:48:24.583Z,159183.88
2023-02-06T12:51:36.221Z,159213.81
2023-02-06T12:54:54.819Z,159226.88
2023-02-06T12:57:59.463Z,159186.47
2023-02-06T13:01:28.589Z,159203.38
2023-02-06T13:04:37.631Z,159206.00
2023-02-06T13:07:49.298Z,159211.19
2023-02-06T13:11:06.839Z,159212.50
2023-02-06T13:14:18.916Z,159221.66
2023-02-06T13:17:26.053Z,159182.56
2023-02-06T13:20:32.432Z,159182.56
2023-02-06T13:23:49.793Z,159181.31
2023-02-06T13:27:03.317Z,159186.47
2023-02-06T13:30:36.597Z,159187.78
2023-02-06T13:34:02.007Z,159196.94
2023-02-06T13:37:32.403Z,159176.06
2023-02-06T13:40:36.780Z,159195.59
2023-02-06T13:43:45.885Z,159220.31
2023-02-06T13:47:13.563Z,159224.22
2023-02-06T13:50:29.421Z,159216.41
2023-02-06T13:54:11.188Z,159193.03
2023-02-06T13:57:37.185Z,159174.75
2023-02-06T14:00:43.759Z,159177.41
2023-02-06T14:03:50.491Z,159172.16
2023-02-06T14:07:16.796Z,159190.44
2023-02-06T14:10:42.060Z,159164.34
2023-02-06T14:13:58.313Z,159146.09
2023-02-06T14:17:29.138Z,159150.00
2023-02-06T14:20:52.649Z,159120.06
2023-02-06T14:24:39.185Z,159117.41
2023-02-06T14:27:43.120Z,159117.41
2023-02-06T14:30:58.883Z,159075.78
2023-02-06T14:34:46.247Z,159057.56
2023-02-06T14:38:18.700Z,159045.84
2023-02-06T14:41:23.404Z,159018.47
2023-02-06T14:44:30.950Z,159013.25
2023-02-06T14:47:44.257Z,159021.09
2023-02-06T14:50:55.466Z,159017.16
2023-02-06T14:54:04.078Z,159011.97
2023-02-06T14:57:20.160Z,158985.91
2023-02-06T15:00:26.204Z,158984.59
2023-02-06T15:03:30.356Z,158979.41
2023-02-06T15:06:50.964Z,158961.16
2023-02-06T15:10:07.936Z,158937.78
2023-02-06T15:13:24.068Z,158932.56
2023-02-06T15:16:30.390Z,158924.75
2023-02-06T15:19:37.411Z,158927.34
2023-02-06T15:22:41.241Z,158924.75
2023-02-06T15:25:45.331Z,158926.06
2023-02-06T15:28:56.672Z,158935.16
2023-02-06T15:32:05.050Z,158928.66
2023-02-06T15:35:22.138Z,158927.34
2023-02-06T15:38:28.203Z,158918.22
2023-02-06T15:41:32.649Z,158919.53
2023-02-06T15:44:38.013Z,158915.63
2023-02-06T15:47:44.455Z,158909.13
2023-02-06T15:50:59.079Z,158883.09
2023-02-06T15:54:19.629Z,158871.38
2023-02-06T15:57:40.169Z,158863.56
2023-02-06T16:00:52.500Z,158844.00
2023-02-06T16:04:05.205Z,158827.13
2023-02-06T16:07:14.888Z,158786.72
2023-02-06T16:10:26.099Z,158780.22
2023-02-06T16:13:32.107Z,158803.66
2023-02-06T16:16:36.237Z,158823.16
2023-02-06T16:19:52.149Z,158814.09
2023-02-06T16:23:22.113Z,158812.78
2023-02-06T16:26:28.939Z,158818.00
2023-02-06T16:29:33.368Z,158815.34
2023-02-06T16:32:37.616Z,158801.06
2023-02-06T16:35:41.886Z,158807.53
2023-02-06T16:38:54.082Z,158815.34
2023-02-06T16:42:05.698Z,158788.03
2023-02-06T16:45:30.270Z,158808.88
2023-02-06T16:48:34.505Z,158814.09
2023-02-06T16:51:41.066Z,158804.97
2023-02-06T16:54:46.116Z,158827.13
2023-02-06T16:57:55.282Z,158818.00
2023-02-06T17:00:59.773Z,158810.19
2023-02-06T17:04:04.222Z,158801.06
2023-02-06T17:07:14.579Z,158786.72
2023-02-06T17:10:25.220Z,158778.91
2023-02-06T17:13:29.508Z,158741.16
2023-02-06T17:16:33.851Z,158725.56
2023-02-06T17:19:38.102Z,158716.44
2023-02-06T17:22:42.167Z,158717.75
2023-02-06T17:25:46.675Z,158700.81
2023-02-06T17:28:50.983Z,158703.41
2023-02-06T17:31:58.660Z,158660.56
2023-02-06T17:35:02.932Z,158641.06
2023-02-06T17:38:09.039Z,158587.72
2023-02-06T17:41:13.163Z,158570.78
2023-02-06T17:44:18.784Z,158539.53
2023-02-06T17:47:22.952Z,158546.06
2023-02-06T17:50:28.547Z,158547.34
2023-02-06T17:53:32.657Z,158577.28
2023-02-06T17:56:37.437Z,158547.34
2023-02-06T17:59:41.446Z,158531.75
2023-02-06T18:02:45.961Z,158507.00
2023-02-06T18:06:00.539Z,158504.41
2023-02-06T18:09:05.659Z,158513.50
2023-02-06T18:12:09.658Z,158518.69
2023-02-06T18:15:15.464Z,158542.19
2023-02-06T18:18:20.327Z,158514.78
2023-02-06T18:21:24.873Z,158530.44
2023-02-06T18:24:29.064Z,158535.66
2023-02-06T18:27:35.010Z,158518.69
2023-02-06T18:30:41.202Z,158507.00
2023-02-06T18:33:45.739Z,158435.44
2023-02-06T18:36:52.898Z,158414.63
2023-02-06T18:39:56.989Z,158432.84
2023-02-06T18:43:01.187Z,158422.47
2023-02-06T18:46:08.480Z,158426.38
2023-02-06T18:49:12.845Z,158402.94
2023-02-06T18:52:17.988Z,158396.47
2023-02-06T18:55:22.188Z,158360.06
2023-02-06T18:58:26.139Z,158370.44
2023-02-06T19:01:31.353Z,158353.53
2023-02-06T19:04:35.846Z,158375.66
2023-02-06T19:07:40.024Z,158370.44
2023-02-06T19:10:44.386Z,158339.28
2023-02-06T19:13:48.676Z,158334.06
2023-02-06T19:16:53.167Z,158327.56
2023-02-06T19:19:57.190Z,158310.69
2023-02-06T19:23:01.202Z,158306.78
2023-02-06T19:26:10.511Z,158313.25
2023-02-06T19:29:19.351Z,158336.63
2023-02-06T19:32:29.138Z,158322.38
2023-02-06T19:35:33.211Z,158339.28
2023-02-06T19:38:38.080Z,158326.25
2023-02-06T19:41:42.492Z,158292.47
2023-02-06T19:44:51.888Z,158291.16
2023-02-06T19:47:57.173Z,158285.97
2023-02-06T19:51:10.204Z,158276.88
2023-02-06T19:54:14.628Z,158256.03
2023-02-06T19:57:19.404Z,158257.34
2023-02-06T20:00:23.928Z,158256.03
2023-02-06T20:03:27.861Z,158253.44
2023-02-06T20:06:35.037Z,158241.72
2023-02-06T20:09:41.840Z,158220.91
2023-02-06T20:12:46.749Z,158224.88
2023-02-06T20:15:50.982Z,158223.56
2023-02-06T20:18:55.883Z,158206.66
2023-02-06T20:22:00.892Z,158209.22
2023-02-06T20:25:05.074Z,158218.34
2023-02-06T20:28:09.113Z,158227.44
2023-02-06T20:31:14.225Z,158228.75
2023-02-06T20:34:19.611Z,158226.13
2023-02-06T20:37:23.837Z,158231.34
2023-02-06T20:40:28.540Z,158201.44
2023-02-06T20:43:32.890Z,158202.75
2023-02-06T20:46:37.414Z,158196.22
2023-02-06T20:49:41.987Z,158193.66
2023-02-06T20:52:46.014Z,158185.84
2023-02-06T20:55:50.285Z,158180.66
2023-02-06T20:58:54.504Z,158170.28
2023-02-06T21:01:58.879Z,158166.38
2023-02-06T21:05:03.200Z,158193.66
2023-02-06T21:08:08.334Z,158166.38
2023-02-06T21:11:12.265Z,158149.50
2023-02-06T21:14:17.589Z,158139.06
2023-02-06T21:17:21.725Z,158148.19
2023-02-06T21:20:26.171Z,158131.28
2023-02-06T21:23:30.406Z,158115.66
2023-02-06T21:26:35.420Z,158149.50
2023-02-06T21:29:39.343Z,158127.34
2023-02-06T21:32:43.409Z,158113.09
2023-02-06T21:35:50.420Z,158119.56
2023-02-06T21:38:54.753Z,158122.13
2023-02-06T21:42:00.391Z,158098.75
2023-02-06T21:45:04.508Z,158113.09
2023-02-06T21:48:09.228Z,158087.09
2023-02-06T21:51:15.288Z,158072.78
2023-02-06T21:54:19.336Z,158088.41
2023-02-06T21:57:23.682Z,158110.44
2023-02-06T22:00:28.743Z,158098.75
2023-02-06T22:03:33.799Z,158096.19
2023-02-06T22:06:38.664Z,158110.44
2023-02-06T22:09:42.987Z,158087.09
2023-02-06T22:12:50.432Z,158096.19
2023-02-06T22:15:54.742Z,158094.88
2023-02-06T22:19:00.689Z,158085.78
2023-02-06T22:22:04.987Z,158083.19
2023-02-06T22:25:11.590Z,158085.78
2023-02-06T22:28:15.961Z,158057.19
2023-02-06T22:31:26.013Z,158081.88
2023-02-06T22:34:31.080Z,158054.63
2023-02-06T22:37:34.908Z,158066.31
2023-02-06T22:40:39.201Z,158065.00
2023-02-06T22:43:44.984Z,158048.09
2023-02-06T22:46:52.065Z,158068.88
2023-02-06T22:49:56.170Z,158061.09
2023-02-06T22:53:18.914Z,158050.72
2023-02-06T22:56:34.846Z,158053.31
2023-02-06T22:59:39.139Z,158055.94
2023-02-06T23:02:43.592Z,158058.53
2023-02-06T23:05:47.742Z,158050.72
2023-02-06T23:08:52.113Z,158041.63
2023-02-06T23:11:58.315Z,158026.06
2023-02-06T23:15:02.549Z,158027.31
2023-02-06T23:18:07.303Z,157998.72
2023-02-06T23:21:13.480Z,158006.53
2023-02-06T23:24:18.214Z,157988.34
2023-02-06T23:27:25.209Z,157972.78
2023-02-06T23:30:28.950Z,157974.03
2023-02-06T23:33:34.268Z,157971.44
2023-02-06T23:36:38.589Z,157958.47
2023-02-06T23:39:43.005Z,157957.19
2023-02-06T23:42:47.272Z,157965.00
2023-02-06T23:45:51.285Z,157954.56
2023-02-06T23:48:55.664Z,157952.00
2023-02-06T23:51:59.774Z,157968.88
2023-02-06T23:55:04.781Z,157997.44
2023-02-06T23:58:09.032Z,158014.31
